Time;durP1;ratioP1;P1;durP2;ratioP2;P2;SDS_P1;SDS_P2;PMS_P1;PMS_P2;Temp;Humidity;BMP_temperature;BMP_pressure;BME280_temperature;BME280_humidity;BME280_pressure;Samples;Min_cycle;Max_cycle;Signal;HPM_P1;HPM_P2
2023/04/20 00:00:16;;;;;;;6.17;5.57;;;9.50;99.90;;;;;;5000910;28;20201;-65
2023/04/20 00:02:42;;;;;;;6.97;5.80;;;9.50;99.90;;;;;;5002491;28;20639;-65
2023/04/20 00:05:09;;;;;;;5.77;4.90;;;9.50;99.90;;;;;;5001792;28;20827;-65
2023/04/20 00:07:35;;;;;;;9.00;5.90;;;9.50;99.90;;;;;;5007118;28;20474;-66
2023/04/20 00:10:02;;;;;;;8.10;5.00;;;9.40;99.90;;;;;;5004208;28;20894;-66
2023/04/20 00:12:28;;;;;;;7.47;5.00;;;9.40;99.90;;;;;;4998621;28;20448;-65
2023/04/20 00:14:54;;;;;;;6.07;5.47;;;9.40;99.90;;;;;;5002241;28;20470;-65
2023/04/20 00:17:20;;;;;;;6.77;5.80;;;9.30;99.90;;;;;;5002117;28;20439;-65
2023/04/20 00:19:46;;;;;;;8.80;6.10;;;9.30;99.90;;;;;;5004544;28;20423;-66
2023/04/20 00:22:12;;;;;;;6.50;5.70;;;9.30;99.90;;;;;;5003430;28;20535;-65
2023/04/20 00:24:37;;;;;;;7.77;5.63;;;9.30;99.90;;;;;;5002745;28;20212;-66
2023/04/20 00:27:03;;;;;;;7.53;5.60;;;9.30;99.90;;;;;;5002806;28;20475;-65
2023/04/20 00:29:29;;;;;;;6.60;5.37;;;9.30;99.90;;;;;;5003183;28;20196;-65
2023/04/20 00:31:54;;;;;;;6.17;5.57;;;9.20;99.90;;;;;;5003330;28;20664;-65
2023/04/20 00:34:20;;;;;;;7.80;5.80;;;9.20;99.90;;;;;;5005012;28;20178;-65
2023/04/20 00:36:45;;;;;;;7.40;5.50;;;9.20;99.90;;;;;;5002665;28;20199;-65
2023/04/20 00:39:11;;;;;;;6.80;6.10;;;9.20;99.90;;;;;;5000699;28;20197;-65
2023/04/20 00:41:37;;;;;;;7.33;5.43;;;9.20;99.90;;;;;;5003300;28;20213;-65
2023/04/20 00:44:06;;;;;;;7.63;5.70;;;9.20;99.90;;;;;;5001282;28;20647;-65
2023/04/20 00:46:32;;;;;;;6.50;5.53;;;9.10;99.90;;;;;;5004435;28;20230;-65
2023/04/20 00:48:59;;;;;;;7.63;5.70;;;9.10;99.90;;;;;;4998054;28;20436;-66
2023/04/20 00:51:24;;;;;;;6.70;4.80;;;9.10;99.90;;;;;;5004555;28;20436;-64
2023/04/20 00:53:50;;;;;;;7.50;5.93;;;9.10;99.90;;;;;;5003885;28;20431;-66
2023/04/20 00:56:16;;;;;;;6.80;5.37;;;9.00;99.90;;;;;;5002814;28;20200;-66
2023/04/20 00:58:45;;;;;;;7.50;6.00;;;9.00;99.90;;;;;;5003766;28;20580;-66
2023/04/20 01:01:11;;;;;;;5.80;5.30;;;9.00;99.90;;;;;;5004694;28;20209;-65
2023/04/20 01:03:38;;;;;;;6.10;5.50;;;9.00;99.90;;;;;;5002545;28;20471;-65
2023/04/20 01:06:05;;;;;;;8.60;5.93;;;8.90;99.90;;;;;;5002177;28;20476;-65
2023/04/20 01:08:31;;;;;;;6.13;5.50;;;8.90;99.90;;;;;;4998890;28;20447;-66
2023/04/20 01:10:56;;;;;;;6.73;5.80;;;8.90;99.90;;;;;;5001794;28;20965;-67
2023/04/20 01:13:22;;;;;;;7.73;5.70;;;8.90;99.90;;;;;;5002350;28;20679;-64
2023/04/20 01:15:48;;;;;;;6.60;5.90;;;8.90;99.90;;;;;;4996735;28;20240;-65
2023/04/20 01:18:14;;;;;;;8.33;5.23;;;8.90;99.90;;;;;;5004362;28;20197;-66
2023/04/20 01:20:40;;;;;;;9.73;5.90;;;8.80;99.90;;;;;;4998053;28;20659;-66
2023/04/20 01:23:05;;;;;;;6.53;5.00;;;8.80;99.90;;;;;;5003855;28;20730;-66
2023/04/20 01:25:31;;;;;;;7.60;6.00;;;8.80;99.90;;;;;;5019542;28;20193;-66
2023/04/20 01:27:56;;;;;;;6.97;5.87;;;8.80;99.90;;;;;;5001585;28;20192;-66
2023/04/20 01:30:22;;;;;;;6.77;5.60;;;8.70;99.90;;;;;;5003795;28;20251;-66
2023/04/20 01:32:47;;;;;;;6.80;5.03;;;8.70;99.90;;;;;;5001368;28;20203;-65
2023/04/20 01:35:14;;;;;;;5.60;5.10;;;8.70;99.90;;;;;;5016289;28;20268;-65
2023/04/20 01:37:41;;;;;;;8.70;5.60;;;8.70;99.90;;;;;;5000297;28;20192;-65
2023/04/20 01:40:11;;;;;;;5.40;4.90;;;8.60;99.90;;;;;;4999063;28;20471;-65
2023/04/20 01:42:37;;;;;;;5.83;4.70;;;8.60;99.90;;;;;;5003877;28;20427;-65
2023/04/20 01:45:04;;;;;;;7.30;5.43;;;8.60;99.90;;;;;;5002475;28;20509;-65
2023/04/20 01:47:30;;;;;;;6.90;5.27;;;8.60;99.90;;;;;;5004711;28;20236;-65
2023/04/20 01:49:56;;;;;;;7.37;5.40;;;8.60;99.90;;;;;;5002689;28;21083;-65
2023/04/20 01:52:21;;;;;;;5.27;4.77;;;8.60;99.90;;;;;;5003308;28;20189;-65
2023/04/20 01:54:47;;;;;;;7.27;5.43;;;8.60;99.90;;;;;;4999632;28;20194;-65
2023/04/20 01:57:12;;;;;;;8.77;5.20;;;8.60;99.90;;;;;;5002292;28;20670;-65
2023/04/20 01:59:38;;;;;;;6.50;5.90;;;8.50;99.90;;;;;;5001956;28;20212;-65
2023/04/20 02:02:03;;;;;;;9.73;5.50;;;8.50;99.90;;;;;;5000859;28;20195;-65
2023/04/20 02:04:29;;;;;;;5.87;5.27;;;8.50;99.90;;;;;;5001677;28;20223;-65
2023/04/20 02:06:55;;;;;;;5.77;5.13;;;8.50;99.90;;;;;;4999070;28;20273;-65
2023/04/20 02:09:20;;;;;;;7.90;5.53;;;8.50;99.90;;;;;;5003525;28;22552;-65
2023/04/20 02:11:46;;;;;;;6.20;5.37;;;8.50;99.90;;;;;;5001011;28;20279;-65
2023/04/20 02:14:11;;;;;;;8.60;6.30;;;8.50;99.90;;;;;;5000028;28;20189;-65
2023/04/20 02:16:37;;;;;;;6.70;5.07;;;8.40;99.90;;;;;;5002330;28;20246;-65
2023/04/20 02:19:03;;;;;;;6.10;5.60;;;8.40;99.90;;;;;;4998417;28;20193;-65
2023/04/20 02:21:28;;;;;;;6.07;5.47;;;8.40;99.90;;;;;;5002554;28;20748;-65
2023/04/20 02:23:54;;;;;;;6.67;5.50;;;8.40;99.90;;;;;;4999476;28;20220;-65
2023/04/20 02:26:19;;;;;;;7.93;5.57;;;8.40;99.90;;;;;;5000279;28;20217;-65
2023/04/20 02:28:45;;;;;;;11.47;6.20;;;8.40;99.90;;;;;;4999683;28;20204;-65
2023/04/20 02:31:11;;;;;;;6.80;6.10;;;8.30;99.90;;;;;;4997769;28;20217;-65
2023/04/20 02:33:37;;;;;;;8.37;5.70;;;8.30;99.90;;;;;;5002305;28;20535;-65
2023/04/20 02:36:03;;;;;;;6.80;6.10;;;8.30;99.90;;;;;;4999119;28;20185;-65
2023/04/20 02:38:29;;;;;;;6.07;5.47;;;8.30;99.90;;;;;;5001693;28;20445;-65
2023/04/20 02:40:54;;;;;;;6.87;6.03;;;8.20;99.90;;;;;;4999661;28;20685;-65
2023/04/20 02:43:20;;;;;;;9.23;6.23;;;8.20;99.90;;;;;;5003425;28;20230;-65
2023/04/20 02:45:45;;;;;;;6.13;5.47;;;8.10;99.90;;;;;;5000404;28;20240;-65
2023/04/20 02:48:12;;;;;;;7.37;5.90;;;8.10;99.90;;;;;;5003576;28;20174;-65
2023/04/20 02:50:37;;;;;;;6.90;6.20;;;8.10;99.90;;;;;;5003172;28;21045;-65
2023/04/20 02:53:03;;;;;;;10.83;6.47;;;8.00;99.90;;;;;;4996703;28;20453;-66
2023/04/20 02:55:29;;;;;;;6.83;5.70;;;8.00;99.90;;;;;;5003170;28;20267;-66
2023/04/20 02:57:54;;;;;;;10.10;6.43;;;8.00;99.90;;;;;;5000587;28;20262;-66
2023/04/20 03:00:20;;;;;;;12.20;6.40;;;8.00;99.90;;;;;;5001213;28;20205;-65
2023/04/20 03:02:45;;;;;;;7.93;6.27;;;8.00;99.90;;;;;;5001219;28;20224;-66
2023/04/20 03:05:12;;;;;;;8.90;7.07;;;7.90;99.90;;;;;;5002560;28;20193;-66
2023/04/20 03:07:37;;;;;;;7.33;6.53;;;7.90;99.90;;;;;;5007242;28;20793;-66
2023/04/20 03:10:03;;;;;;;6.50;5.80;;;7.90;99.90;;;;;;4999401;28;20467;-66
2023/04/20 03:12:30;;;;;;;9.17;6.27;;;7.80;99.90;;;;;;5002682;28;20185;-66
2023/04/20 03:14:56;;;;;;;7.40;6.53;;;7.80;99.90;;;;;;5000469;28;20492;-66
2023/04/20 03:17:21;;;;;;;9.77;6.97;;;7.80;99.90;;;;;;5001742;28;20451;-66
2023/04/20 03:19:47;;;;;;;8.80;6.90;;;7.80;99.90;;;;;;4995972;28;20208;-66
2023/04/20 03:22:13;;;;;;;10.03;6.30;;;7.80;99.90;;;;;;4999966;28;20664;-66
2023/04/20 03:24:38;;;;;;;7.43;6.73;;;7.70;99.90;;;;;;5001132;28;20189;-66
2023/04/20 03:27:04;;;;;;;7.70;6.77;;;7.70;99.90;;;;;;4999162;28;20212;-66
2023/04/20 03:29:29;;;;;;;8.70;6.53;;;7.70;99.90;;;;;;4999700;28;20200;-63
2023/04/20 03:31:55;;;;;;;8.40;6.70;;;7.60;99.90;;;;;;4998857;28;20231;-65
2023/04/20 03:34:20;;;;;;;8.83;6.60;;;7.60;99.90;;;;;;4996550;28;20192;-67
2023/04/20 03:36:46;;;;;;;8.43;6.70;;;7.60;99.90;;;;;;4998412;28;20284;-65
2023/04/20 03:39:12;;;;;;;8.03;6.50;;;7.50;99.90;;;;;;5003753;28;20220;-64
2023/04/20 03:41:37;;;;;;;7.73;6.40;;;7.40;99.90;;;;;;4999423;28;20217;-65
2023/04/20 03:44:03;;;;;;;9.67;6.80;;;7.40;99.90;;;;;;4999704;28;20668;-65
2023/04/20 03:46:29;;;;;;;9.83;7.03;;;7.40;99.90;;;;;;5001415;28;20244;-64
2023/04/20 03:48:54;;;;;;;8.37;5.90;;;7.40;99.90;;;;;;4998493;28;20258;-64
2023/04/20 03:51:20;;;;;;;9.27;6.03;;;7.30;99.90;;;;;;4999524;28;20205;-65
2023/04/20 03:53:45;;;;;;;8.30;7.50;;;7.30;99.90;;;;;;4999683;28;20217;-65
2023/04/20 03:56:11;;;;;;;7.33;6.40;;;7.20;99.90;;;;;;5000816;28;20200;-65
2023/04/20 03:58:36;;;;;;;8.60;6.70;;;7.20;99.90;;;;;;5000580;28;20189;-65
2023/04/20 04:01:09;;;;;;;13.77;6.63;;;7.20;99.90;;;;;;4999432;28;20284;-65
2023/04/20 04:03:35;;;;;;;7.70;6.40;;;7.20;99.90;;;;;;4997776;28;20217;-65
2023/04/20 04:06:02;;;;;;;11.83;7.10;;;7.20;99.90;;;;;;4999630;28;20978;-65
2023/04/20 04:08:27;;;;;;;9.30;6.67;;;7.10;99.90;;;;;;5001566;28;21767;-65
2023/04/20 04:10:54;;;;;;;7.90;6.60;;;7.20;99.90;;;;;;4997626;28;20437;-65
2023/04/20 04:13:19;;;;;;;8.73;7.37;;;7.10;99.90;;;;;;5000618;28;20177;-64
2023/04/20 04:15:45;;;;;;;9.53;7.10;;;7.10;99.90;;;;;;5001754;28;21011;-65
2023/04/20 04:18:10;;;;;;;9.77;6.57;;;7.10;99.90;;;;;;5002345;28;20527;-65
2023/04/20 04:20:36;;;;;;;10.63;6.70;;;7.10;99.90;;;;;;4999960;28;20208;-65
2023/04/20 04:23:01;;;;;;;8.60;7.00;;;7.10;99.90;;;;;;4995936;28;20193;-65
2023/04/20 04:25:28;;;;;;;9.00;8.00;;;7.10;99.90;;;;;;4998895;28;20181;-65
2023/04/20 04:27:54;;;;;;;9.43;6.50;;;7.10;99.90;;;;;;4993747;28;20190;-65
2023/04/20 04:30:19;;;;;;;9.30;7.50;;;7.10;99.90;;;;;;5002755;28;20487;-65
2023/04/20 04:32:45;;;;;;;8.30;6.90;;;7.10;99.90;;;;;;5002450;28;20185;-65
2023/04/20 04:35:12;;;;;;;8.30;7.47;;;7.10;99.90;;;;;;4999538;28;20192;-65
2023/04/20 04:37:37;;;;;;;7.60;6.37;;;7.10;99.90;;;;;;4997285;28;20192;-65
2023/04/20 04:40:06;;;;;;;8.30;6.50;;;7.10;99.90;;;;;;5002805;28;20464;-65
2023/04/20 04:42:33;;;;;;;7.80;6.77;;;7.10;99.90;;;;;;5006085;28;20193;-65
2023/04/20 04:45:01;;;;;;;8.20;6.77;;;7.10;99.90;;;;;;5004098;28;20886;-66
2023/04/20 04:47:28;;;;;;;8.57;6.63;;;7.10;99.90;;;;;;5004341;28;21477;-65
2023/04/20 04:49:54;;;;;;;7.93;6.60;;;7.10;99.90;;;;;;5002255;28;20472;-65
2023/04/20 04:52:19;;;;;;;11.50;6.30;;;7.10;99.90;;;;;;5002004;28;20526;-65
2023/04/20 04:54:45;;;;;;;7.17;6.47;;;7.10;99.90;;;;;;5000383;28;20185;-65
2023/04/20 04:57:11;;;;;;;9.93;7.10;;;7.10;99.90;;;;;;5003360;28;20196;-65
2023/04/20 04:59:36;;;;;;;9.67;6.67;;;7.10;99.90;;;;;;5003998;28;20436;-65
2023/04/20 05:02:02;;;;;;;8.53;6.93;;;7.20;99.90;;;;;;5001096;28;20205;-65
2023/04/20 05:04:28;;;;;;;10.53;8.30;;;7.20;99.90;;;;;;5000797;28;20685;-65
2023/04/20 05:06:53;;;;;;;8.90;7.43;;;7.20;99.90;;;;;;5001990;28;20690;-65
2023/04/20 05:09:19;;;;;;;7.90;6.90;;;7.20;99.90;;;;;;5001455;28;20667;-66
2023/04/20 05:11:45;;;;;;;8.30;6.77;;;7.20;99.90;;;;;;5002115;28;20260;-65
2023/04/20 05:14:10;;;;;;;7.60;6.40;;;7.30;99.90;;;;;;4998157;28;20177;-65
2023/04/20 05:16:36;;;;;;;7.60;6.80;;;7.30;99.90;;;;;;5002133;28;20463;-65
2023/04/20 05:19:02;;;;;;;7.23;6.30;;;7.30;99.90;;;;;;4999424;28;20185;-66
2023/04/20 05:21:28;;;;;;;7.70;6.17;;;7.30;99.90;;;;;;5002236;28;20263;-66
2023/04/20 05:23:53;;;;;;;9.03;6.13;;;7.30;99.90;;;;;;5003624;28;20479;-65
2023/04/20 05:26:19;;;;;;;9.13;6.50;;;7.40;99.90;;;;;;5002474;28;20209;-66
2023/04/20 05:28:45;;;;;;;9.17;6.73;;;7.40;99.90;;;;;;5003730;28;20762;-65
2023/04/20 05:31:10;;;;;;;7.90;6.40;;;7.40;99.90;;;;;;5001576;28;20208;-64
2023/04/20 05:33:36;;;;;;;8.40;6.37;;;7.40;99.90;;;;;;5000825;28;20189;-65
2023/04/20 05:36:01;;;;;;;6.83;6.03;;;7.40;99.90;;;;;;4998901;28;20211;-65
2023/04/20 05:38:27;;;;;;;9.47;7.30;;;7.40;99.90;;;;;;5002777;28;20272;-65
2023/04/20 05:40:52;;;;;;;10.40;6.57;;;7.40;99.90;;;;;;5002559;28;20217;-65
2023/04/20 05:43:18;;;;;;;8.53;6.90;;;7.50;99.90;;;;;;5004396;28;20184;-65
2023/04/20 05:45:45;;;;;;;9.80;7.10;;;7.50;99.90;;;;;;5004589;28;20670;-65
2023/04/20 05:48:11;;;;;;;8.40;6.57;;;7.50;99.90;;;;;;4999678;28;20186;-67
2023/04/20 05:50:36;;;;;;;8.57;6.20;;;7.50;99.90;;;;;;5001887;28;20471;-66
2023/04/20 05:53:02;;;;;;;7.80;6.77;;;7.50;99.90;;;;;;4999171;28;20185;-66
2023/04/20 05:55:27;;;;;;;12.17;6.77;;;7.50;99.90;;;;;;5003609;28;20185;-66
2023/04/20 05:57:53;;;;;;;7.87;6.77;;;7.50;99.90;;;;;;4998471;28;20721;-66
2023/04/20 06:00:20;;;;;;;8.87;7.97;;;7.60;99.90;;;;;;5001874;28;20223;-66
2023/04/20 06:02:45;;;;;;;8.03;6.70;;;7.70;99.90;;;;;;5000812;28;20200;-65
2023/04/20 06:05:11;;;;;;;8.20;6.93;;;7.70;99.90;;;;;;5002094;28;20440;-68
2023/04/20 06:07:37;;;;;;;7.70;7.00;;;7.70;99.90;;;;;;5002351;28;20213;-66
2023/04/20 06:10:04;;;;;;;8.27;7.00;;;7.80;99.90;;;;;;4996236;28;21107;-64
2023/04/20 06:12:30;;;;;;;8.97;7.27;;;7.80;99.90;;;;;;4990465;28;20201;-66
2023/04/20 06:14:56;;;;;;;7.67;6.40;;;7.90;99.90;;;;;;5011394;28;20841;-64
2023/04/20 06:17:22;;;;;;;10.73;7.17;;;7.90;99.90;;;;;;5003881;28;20224;-65
2023/04/20 06:19:47;;;;;;;8.33;7.00;;;7.90;99.90;;;;;;5003452;28;20440;-66
2023/04/20 06:22:14;;;;;;;8.53;7.63;;;7.90;99.90;;;;;;4995474;28;20268;-65
2023/04/20 06:24:41;;;;;;;7.30;6.30;;;7.90;99.90;;;;;;5000507;28;20181;-65
2023/04/20 06:27:07;;;;;;;8.93;7.03;;;7.90;99.90;;;;;;5002351;28;20463;-66
2023/04/20 06:29:33;;;;;;;7.90;6.63;;;7.90;99.90;;;;;;4997728;28;20495;-67
2023/04/20 06:31:58;;;;;;;12.30;7.00;;;7.90;99.90;;;;;;4999732;28;20766;-66
2023/04/20 06:34:24;;;;;;;7.67;6.43;;;7.90;99.90;;;;;;4996732;28;20196;-66
2023/04/20 06:36:49;;;;;;;7.93;6.53;;;8.00;99.90;;;;;;4996112;28;20264;-66
2023/04/20 06:39:16;;;;;;;8.37;6.80;;;8.00;99.90;;;;;;4999555;28;20557;-66
2023/04/20 06:41:42;;;;;;;10.20;6.70;;;8.00;99.90;;;;;;5001173;28;20381;-66
2023/04/20 06:44:08;;;;;;;7.47;6.70;;;8.10;99.90;;;;;;5005070;28;20428;-66
2023/04/20 06:46:33;;;;;;;11.77;6.90;;;8.10;99.90;;;;;;5000763;28;20474;-66
2023/04/20 06:48:59;;;;;;;9.13;6.60;;;8.10;99.90;;;;;;4999302;28;20246;-65
2023/04/20 06:51:26;;;;;;;10.83;7.50;;;8.10;99.90;;;;;;4998987;28;20196;-66
2023/04/20 06:53:52;;;;;;;8.90;7.60;;;8.20;99.90;;;;;;5000757;28;20578;-66
2023/04/20 06:56:17;;;;;;;8.73;7.77;;;8.20;99.90;;;;;;4999384;28;20439;-66
2023/04/20 06:58:43;;;;;;;8.30;6.90;;;8.30;99.90;;;;;;5000850;28;20300;-66
2023/04/20 07:01:08;;;;;;;9.40;6.50;;;8.30;99.90;;;;;;4993396;28;20208;-66
2023/04/20 07:03:34;;;;;;;10.53;7.40;;;8.40;99.90;;;;;;4999924;28;20248;-65
2023/04/20 07:06:00;;;;;;;7.77;6.90;;;8.50;99.90;;;;;;5000491;28;20292;-66
2023/04/20 07:08:25;;;;;;;8.00;6.67;;;8.50;99.90;;;;;;4996899;28;20192;-66
2023/04/20 07:10:51;;;;;;;8.07;6.43;;;8.60;99.90;;;;;;4997402;28;20276;-65
2023/04/20 07:13:16;;;;;;;11.40;8.57;;;8.60;99.90;;;;;;5000683;28;20182;-65
2023/04/20 07:15:45;;;;;;;9.17;7.63;;;8.70;99.90;;;;;;5001326;28;20177;-65
2023/04/20 07:18:10;;;;;;;8.40;6.57;;;8.80;99.90;;;;;;4998424;28;20276;-65
2023/04/20 07:20:36;;;;;;;8.80;7.73;;;8.80;99.90;;;;;;5000018;28;20539;-65
2023/04/20 07:23:02;;;;;;;10.77;8.07;;;8.80;99.90;;;;;;4993719;28;20212;-65
2023/04/20 07:25:30;;;;;;;9.47;6.80;;;8.90;99.90;;;;;;5001641;28;20185;-65
2023/04/20 07:27:55;;;;;;;8.50;7.60;;;8.90;99.90;;;;;;4996291;28;20213;-65
2023/04/20 07:30:21;;;;;;;9.40;7.83;;;9.00;99.90;;;;;;4997427;28;20476;-67
2023/04/20 07:32:48;;;;;;;13.23;8.83;;;9.00;99.90;;;;;;4998714;28;20212;-67
2023/04/20 07:35:13;;;;;;;12.80;9.07;;;9.10;99.90;;;;;;4996785;28;20184;-67
2023/04/20 07:37:39;;;;;;;9.27;7.53;;;9.20;99.90;;;;;;4999294;28;20441;-67
2023/04/20 07:40:05;;;;;;;10.60;7.57;;;9.20;99.90;;;;;;5000130;28;20236;-67
2023/04/20 07:42:33;;;;;;;11.93;8.60;;;9.30;99.90;;;;;;4997188;28;20911;-67
2023/04/20 07:44:58;;;;;;;8.77;7.70;;;9.40;99.90;;;;;;5001232;28;20439;-66
2023/04/20 07:47:24;;;;;;;9.53;7.67;;;9.50;99.90;;;;;;4996814;28;20479;-65
2023/04/20 07:49:49;;;;;;;8.40;7.50;;;9.60;99.90;;;;;;4999808;28;20185;-65
2023/04/20 07:52:17;;;;;;;9.47;7.10;;;9.60;99.90;;;;;;4999325;28;20260;-65
2023/04/20 07:54:43;;;;;;;12.70;8.30;;;9.70;99.90;;;;;;4999512;28;20181;-65
2023/04/20 07:57:08;;;;;;;8.10;7.30;;;9.80;99.90;;;;;;4999690;28;20452;-65
2023/04/20 07:59:34;;;;;;;8.10;7.30;;;9.90;99.90;;;;;;5000300;28;20906;-65
2023/04/20 08:02:01;;;;;;;13.60;8.10;;;9.90;99.90;;;;;;4998389;28;20243;-65
2023/04/20 08:04:27;;;;;;;9.20;7.60;;;9.90;99.90;;;;;;4997540;28;20362;-66
2023/04/20 08:06:52;;;;;;;11.00;7.70;;;9.90;99.90;;;;;;5003121;28;20559;-66
2023/04/20 08:09:18;;;;;;;11.27;7.77;;;10.00;99.90;;;;;;5002534;28;20444;-66
2023/04/20 08:11:45;;;;;;;9.03;7.00;;;10.00;99.90;;;;;;5005132;28;20295;-66
2023/04/20 08:14:11;;;;;;;8.70;6.93;;;10.10;99.90;;;;;;5001252;28;20181;-66
2023/04/20 08:16:36;;;;;;;8.60;7.73;;;10.10;99.90;;;;;;5001192;28;20477;-67
2023/04/20 08:19:08;;;;;;;11.23;7.77;;;10.20;99.90;;;;;;5001578;28;20448;-66
2023/04/20 08:21:35;;;;;;;10.47;7.20;;;10.20;99.90;;;;;;5004165;28;20256;-66
2023/04/20 08:24:01;;;;;;;9.23;7.83;;;10.30;99.90;;;;;;5016230;28;20448;-66
2023/04/20 08:26:26;;;;;;;12.57;9.00;;;10.40;99.90;;;;;;5000747;28;20463;-65
2023/04/20 08:28:52;;;;;;;9.40;7.93;;;10.50;99.90;;;;;;5000484;28;20204;-65
2023/04/20 08:31:17;;;;;;;8.30;7.27;;;10.50;99.90;;;;;;5002876;28;20205;-66
2023/04/20 08:33:43;;;;;;;8.57;6.80;;;10.50;99.90;;;;;;5004888;28;20256;-66
2023/04/20 08:36:09;;;;;;;9.50;7.83;;;10.50;99.90;;;;;;4998463;28;20674;-67
2023/04/20 08:38:35;;;;;;;7.67;6.93;;;10.60;99.90;;;;;;4994060;28;20622;-65
2023/04/20 08:41:01;;;;;;;12.57;8.35;;;10.70;99.90;;;;;;4999912;28;20461;-64
2023/04/20 08:43:26;;;;;;;8.37;7.20;;;10.70;99.90;;;;;;4999416;28;20522;-66
2023/04/20 08:45:56;;;;;;;9.10;7.80;;;10.80;99.90;;;;;;5001278;28;20435;-65
2023/04/20 08:48:24;;;;;;;8.70;7.47;;;10.90;99.90;;;;;;5000147;28;20193;-66
2023/04/20 08:50:50;;;;;;;13.97;7.73;;;10.90;99.90;;;;;;5018431;28;20464;-66
2023/04/20 08:53:15;;;;;;;8.23;7.37;;;11.00;99.90;;;;;;5002112;28;20602;-66
2023/04/20 08:55:41;;;;;;;9.63;8.30;;;11.10;99.90;;;;;;5000708;28;20434;-66
2023/04/20 08:58:07;;;;;;;7.93;7.20;;;11.20;99.90;;;;;;4998435;28;20277;-65
2023/04/20 09:00:32;;;;;;;7.70;6.90;;;11.20;99.90;;;;;;5000564;28;20311;-66
2023/04/20 09:03:00;;;;;;;8.83;7.30;;;11.20;99.90;;;;;;5002179;28;20674;-66
2023/04/20 09:05:27;;;;;;;9.30;7.37;;;11.30;99.90;;;;;;5000779;28;21189;-67
2023/04/20 09:08:00;;;;;;;9.43;8.20;;;11.40;99.90;;;;;;5000316;28;20464;-65
2023/04/20 09:10:41;;;;;;;9.03;8.10;;;11.50;99.90;;;;;;4998102;28;20834;-66
2023/04/20 09:13:08;;;;;;;11.30;9.77;;;11.60;99.90;;;;;;4999598;28;21119;-66
2023/04/20 09:15:34;;;;;;;8.80;7.90;;;11.60;99.90;;;;;;5002246;28;20443;-66
2023/04/20 09:18:11;;;;;;;8.33;7.43;;;11.60;99.90;;;;;;5001562;28;20445;-65
2023/04/20 09:20:36;;;;;;;8.60;7.43;;;11.70;99.90;;;;;;5003361;28;20266;-65
2023/04/20 09:23:16;;;;;;;9.97;8.07;;;11.70;99.90;;;;;;5003867;28;20420;-66
2023/04/20 09:25:45;;;;;;;9.47;7.53;;;11.70;99.90;;;;;;5004427;28;20185;-65
2023/04/20 09:28:12;;;;;;;7.63;6.90;;;11.80;99.90;;;;;;5000550;28;20474;-66
2023/04/20 09:30:40;;;;;;;9.03;8.00;;;11.90;99.90;;;;;;5002403;28;20472;-65
2023/04/20 09:33:07;;;;;;;9.00;8.10;;;12.10;99.90;;;;;;5001786;28;20950;-65
2023/04/20 09:35:33;;;;;;;12.10;9.43;;;12.20;99.90;;;;;;5006002;28;20452;-65
2023/04/20 09:37:59;;;;;;;16.80;12.40;;;12.30;99.90;;;;;;5004435;28;20478;-65
2023/04/20 09:40:26;;;;;;;10.13;8.83;;;12.40;99.90;;;;;;4999904;28;20468;-67
2023/04/20 09:42:53;;;;;;;10.60;9.33;;;12.40;99.90;;;;;;5003924;28;20184;-66
2023/04/20 09:45:20;;;;;;;9.93;8.93;;;12.50;99.90;;;;;;5001607;28;20861;-66
2023/04/20 09:47:48;;;;;;;8.00;7.17;;;12.60;99.90;;;;;;5003076;28;21048;-65
2023/04/20 09:50:14;;;;;;;9.40;7.93;;;12.70;99.90;;;;;;5003957;28;20436;-66
2023/04/20 09:52:42;;;;;;;9.63;7.70;;;12.70;99.90;;;;;;5002139;28;20463;-65
2023/04/20 09:55:09;;;;;;;11.53;8.40;;;12.80;99.90;;;;;;5001561;28;20790;-66
2023/04/20 09:57:37;;;;;;;9.00;8.20;;;12.80;99.90;;;;;;5003938;28;21140;-66
2023/04/20 10:00:05;;;;;;;9.73;8.30;;;12.90;99.90;;;;;;5000700;28;20988;-66
2023/04/20 10:02:31;;;;;;;9.80;8.20;;;13.10;99.90;;;;;;5000888;28;20439;-65
2023/04/20 10:04:58;;;;;;;10.77;8.37;;;13.20;99.90;;;;;;4994712;28;20510;-66
2023/04/20 10:07:30;;;;;;;9.17;8.27;;;13.30;99.90;;;;;;5015383;28;20464;-67
2023/04/20 10:10:15;;;;;;;8.73;7.83;;;13.40;99.90;;;;;;4989977;28;20432;-66
2023/04/20 10:13:00;;;;;;;8.60;7.70;;;13.40;99.90;;;;;;4987499;28;20535;-66
2023/04/20 10:15:40;;;;;;;8.17;7.37;;;13.40;99.90;;;;;;4996773;28;20440;-66
2023/04/20 10:18:23;;;;;;;9.37;8.47;;;13.40;99.90;;;;;;5002144;28;20430;-66
2023/04/20 10:20:50;;;;;;;9.37;8.47;;;13.50;99.90;;;;;;5001095;28;20460;-66
2023/04/20 10:23:17;;;;;;;10.23;9.13;;;13.60;99.90;;;;;;4995851;28;20439;-66
2023/04/20 10:25:57;;;;;;;8.93;8.03;;;13.50;99.90;;;;;;5000539;28;20827;-67
2023/04/20 10:28:23;;;;;;;9.27;8.37;;;13.50;99.90;;;;;;4998652;28;20495;-66
2023/04/20 10:30:52;;;;;;;8.77;7.93;;;13.70;99.90;;;;;;4998243;28;20460;-66
2023/04/20 10:33:18;;;;;;;9.40;8.37;;;13.90;99.90;;;;;;4996442;28;20437;-67
2023/04/20 10:35:50;;;;;;;10.03;8.70;;;14.00;99.90;;;;;;5000294;28;20446;-67
2023/04/20 10:38:35;;;;;;;10.40;8.20;;;14.00;99.90;;;;;;4997852;28;20181;-68
2023/04/20 10:41:07;;;;;;;9.50;8.50;;;14.00;99.90;;;;;;4995774;28;21012;-67
2023/04/20 10:43:34;;;;;;;9.00;8.00;;;14.00;99.90;;;;;;4997281;28;20495;-67
2023/04/20 10:46:00;;;;;;;9.07;8.17;;;14.10;99.90;;;;;;5000914;28;20432;-66
2023/04/20 10:48:25;;;;;;;9.67;8.60;;;14.20;99.90;;;;;;5002096;28;20979;-66
2023/04/20 10:50:51;;;;;;;12.57;8.97;;;14.20;99.90;;;;;;5000728;28;20205;-65
2023/04/20 10:53:23;;;;;;;9.57;8.60;;;14.20;99.90;;;;;;5001039;28;20188;-65
2023/04/20 10:55:59;;;;;;;10.23;9.23;;;14.30;99.90;;;;;;5013748;28;20903;-65
2023/04/20 10:58:24;;;;;;;9.00;8.10;;;14.30;99.90;;;;;;4997753;28;20522;-65
2023/04/20 11:01:01;;;;;;;9.73;8.73;;;14.30;99.90;;;;;;4998574;28;20512;-64
2023/04/20 11:03:28;;;;;;;9.60;8.60;;;14.30;99.90;;;;;;4999254;28;20205;-65
2023/04/20 11:05:54;;;;;;;10.60;9.50;;;14.20;99.90;;;;;;4994355;28;20437;-64
2023/04/20 11:08:19;;;;;;;10.27;9.07;;;14.10;99.90;;;;;;4997871;28;20432;-65
2023/04/20 11:10:45;;;;;;;9.80;8.80;;;14.00;99.90;;;;;;4995239;28;20464;-65
2023/04/20 11:13:24;;;;;;;16.77;8.93;;;14.00;99.90;;;;;;5000413;28;20184;-65
2023/04/20 11:15:50;;;;;;;11.00;8.90;;;14.00;99.90;;;;;;5010423;28;20181;-65
2023/04/20 11:18:16;;;;;;;9.07;8.17;;;13.90;99.90;;;;;;4998091;28;20795;-64
2023/04/20 11:20:52;;;;;;;9.47;7.97;;;13.90;99.90;;;;;;5000199;28;20208;-64
2023/04/20 11:23:24;;;;;;;9.90;8.60;;;13.80;99.90;;;;;;5000686;28;20812;-64
2023/04/20 11:25:54;;;;;;;9.53;8.60;;;13.70;99.90;;;;;;5001339;28;20950;-65
2023/04/20 11:28:20;;;;;;;11.60;8.47;;;13.60;99.90;;;;;;4999907;28;20444;-65
2023/04/20 11:30:46;;;;;;;9.93;7.57;;;13.50;99.90;;;;;;4997839;28;20530;-65
2023/04/20 11:33:12;;;;;;;9.13;8.23;;;13.40;99.90;;;;;;4999923;28;20276;-65
2023/04/20 11:35:40;;;;;;;10.67;9.50;;;13.40;99.90;;;;;;4995575;28;20439;-65
2023/04/20 11:38:06;;;;;;;9.10;8.20;;;13.50;99.90;;;;;;5004789;28;20518;-65
2023/04/20 11:40:33;;;;;;;9.80;8.30;;;13.60;99.90;;;;;;4997182;28;20498;-65
2023/04/20 11:42:59;;;;;;;10.50;8.03;;;13.70;99.90;;;;;;4999369;28;20436;-66
2023/04/20 11:45:26;;;;;;;9.53;8.63;;;13.80;99.90;;;;;;5000136;28;20514;-66
2023/04/20 11:47:53;;;;;;;9.77;8.23;;;13.80;99.90;;;;;;5001400;28;20472;-66
2023/04/20 11:50:20;;;;;;;10.07;9.17;;;14.00;99.90;;;;;;5001323;28;21022;-66
2023/04/20 11:52:46;;;;;;;9.73;8.73;;;14.00;99.90;;;;;;5015938;28;20451;-66
2023/04/20 11:55:12;;;;;;;9.53;8.60;;;14.10;99.90;;;;;;4998072;28;20448;-66
2023/04/20 11:57:37;;;;;;;10.00;7.90;;;14.00;99.90;;;;;;4999635;28;20595;-64
2023/04/20 12:00:05;;;;;;;8.80;7.90;;;13.90;99.90;;;;;;5000751;28;20794;-66
2023/04/20 12:02:30;;;;;;;11.13;8.77;;;13.90;99.90;;;;;;5001967;28;20221;-65
2023/04/20 12:04:56;;;;;;;9.57;8.57;;;13.80;99.90;;;;;;5004432;28;20466;-64
2023/04/20 12:07:22;;;;;;;10.60;8.20;;;13.80;99.90;;;;;;5001648;28;20255;-65
2023/04/20 12:09:48;;;;;;;8.30;7.50;;;13.80;99.90;;;;;;4998588;28;20746;-65
2023/04/20 12:12:13;;;;;;;8.30;7.27;;;13.70;99.90;;;;;;4997029;28;20271;-64
2023/04/20 12:14:39;;;;;;;8.87;7.97;;;13.80;99.90;;;;;;4998917;28;20448;-64
2023/04/20 12:17:05;;;;;;;9.10;8.20;;;13.70;99.90;;;;;;5002330;28;20224;-65
2023/04/20 12:19:30;;;;;;;8.17;7.40;;;13.80;99.90;;;;;;5001043;28;20190;-65
2023/04/20 12:21:56;;;;;;;8.80;7.00;;;13.80;99.90;;;;;;4998694;28;20201;-67
2023/04/20 12:24:22;;;;;;;9.67;7.30;;;14.00;99.90;;;;;;5001148;28;20199;-65
2023/04/20 12:26:48;;;;;;;11.27;8.10;;;14.30;99.90;;;;;;4999158;28;20229;-66
2023/04/20 12:29:13;;;;;;;9.50;8.00;;;14.40;99.90;;;;;;4999045;28;20320;-66
2023/04/20 12:31:39;;;;;;;9.77;8.30;;;14.60;99.90;;;;;;5001790;28;20782;-65
2023/04/20 12:34:05;;;;;;;13.50;9.70;;;14.80;99.90;;;;;;5000595;28;20197;-65
2023/04/20 12:36:31;;;;;;;9.37;8.37;;;15.10;99.90;;;;;;4996102;28;20205;-65
2023/04/20 12:38:57;;;;;;;11.60;7.57;;;15.10;99.90;;;;;;4996439;28;20899;-66
2023/04/20 12:41:23;;;;;;;9.17;8.20;;;15.20;99.90;;;;;;4996675;28;20468;-66
2023/04/20 12:43:49;;;;;;;8.70;7.47;;;15.00;99.90;;;;;;5001994;28;21290;-66
2023/04/20 12:46:15;;;;;;;10.37;8.00;;;15.00;99.90;;;;;;5000960;28;20197;-66